Time;durP1;ratioP1;P1;durP2;ratioP2;P2;SDS_P1;SDS_P2;PMS_P1;PMS_P2;Temp;Humidity;BMP_temperature;BMP_pressure;BME280_temperature;BME280_humidity;BME280_pressure;Samples;Min_cycle;Max_cycle;Signal;HPM_P1;HPM_P2
2021/08/25 00:02:09;;;;;;;21.80;20.50;;;;;;;;;;5038283;28;20462;-88
2021/08/25 00:04:38;;;;;;;20.10;19.00;;;;;;;;;;5056417;28;20431;-88
2021/08/25 00:07:07;;;;;;;20.83;19.63;;;;;;;;;;5055964;28;20444;-89
2021/08/25 00:09:34;;;;;;;21.10;19.70;;;;;;;;;;5038633;28;20417;-88
2021/08/25 00:12:02;;;;;;;20.23;19.10;;;;;;;;;;5056131;28;20813;-87
2021/08/25 00:14:29;;;;;;;20.07;18.97;;;;;;;;;;5055493;28;20429;-88
2021/08/25 00:16:56;;;;;;;20.37;18.97;;;;;;;;;;5055845;28;20421;-88
2021/08/25 00:19:24;;;;;;;20.30;19.10;;;;;;;;;;5055618;28;20921;-88
2021/08/25 00:21:54;;;;;;;19.27;18.23;;;;;;;;;;5055727;28;20413;-88
2021/08/25 00:24:21;;;;;;;20.50;19.13;;;;;;;;;;5055699;28;20529;-87
2021/08/25 00:26:49;;;;;;;20.60;19.40;;;;;;;;;;5055484;28;20472;-88
2021/08/25 00:29:16;;;;;;;19.80;18.60;;;;;;;;;;5055506;28;20766;-88
2021/08/25 00:31:44;;;;;;;19.97;18.87;;;;;;;;;;5055492;28;20449;-89
2021/08/25 00:34:11;;;;;;;20.87;19.47;;;;;;;;;;5055184;28;20433;-89
2021/08/25 00:36:39;;;;;;;20.43;19.23;;;;;;;;;;5055509;28;20424;-89
2021/08/25 00:39:08;;;;;;;20.03;18.77;;;;;;;;;;5055500;28;20410;-89
2021/08/25 00:41:35;;;;;;;21.30;19.77;;;;;;;;;;5055245;28;20417;-88
2021/08/25 00:44:02;;;;;;;20.77;19.47;;;;;;;;;;5055286;28;20415;-89
2021/08/25 00:46:31;;;;;;;19.67;18.57;;;;;;;;;;5054930;28;20458;-88
2021/08/25 00:48:59;;;;;;;20.07;18.83;;;;;;;;;;5054704;28;20463;-88
2021/08/25 00:51:27;;;;;;;20.63;19.43;;;;;;;;;;5054950;28;20418;-89
2021/08/25 00:53:54;;;;;;;20.07;18.87;;;;;;;;;;5055025;28;20410;-88
2021/08/25 00:56:23;;;;;;;20.10;19.00;;;;;;;;;;5054958;28;20420;-88
2021/08/25 00:58:51;;;;;;;20.87;19.40;;;;;;;;;;5054938;28;20439;-87
2021/08/25 01:01:25;;;;;;;20.27;19.07;;;;;;;;;;5053920;28;20417;-88
2021/08/25 01:03:55;;;;;;;20.10;18.90;;;;;;;;;;5054844;28;20775;-88
2021/08/25 01:06:23;;;;;;;20.40;19.20;;;;;;;;;;5054844;28;20433;-88
2021/08/25 01:08:51;;;;;;;20.37;18.90;;;;;;;;;;5054735;28;20416;-88
2021/08/25 01:11:18;;;;;;;21.43;19.90;;;;;;;;;;5055041;28;20815;-88
2021/08/25 01:13:47;;;;;;;19.93;18.87;;;;;;;;;;5054141;28;20535;-89
2021/08/25 01:16:15;;;;;;;20.23;19.03;;;;;;;;;;5054763;28;20413;-88
2021/08/25 01:18:42;;;;;;;20.20;19.10;;;;;;;;;;5054812;28;20413;-88
2021/08/25 01:21:10;;;;;;;20.47;19.23;;;;;;;;;;5037259;28;20414;-89
2021/08/25 01:23:40;;;;;;;20.00;18.50;;;;;;;;;;5054546;28;20442;-88
2021/08/25 01:26:08;;;;;;;19.53;18.43;;;;;;;;;;5054432;28;20471;-88
2021/08/25 01:28:36;;;;;;;21.13;19.83;;;;;;;;;;5054481;28;20955;-88
2021/08/25 01:31:05;;;;;;;19.83;18.60;;;;;;;;;;5054075;28;20409;-88
2021/08/25 01:33:32;;;;;;;18.83;17.83;;;;;;;;;;5054517;28;20834;-88
2021/08/25 01:36:00;;;;;;;20.50;19.20;;;;;;;;;;5053997;28;20459;-88
2021/08/25 01:38:30;;;;;;;20.13;18.93;;;;;;;;;;5054862;28;20450;-88
2021/08/25 01:40:58;;;;;;;20.03;18.83;;;;;;;;;;5054255;28;20421;-89
2021/08/25 01:43:27;;;;;;;19.53;18.43;;;;;;;;;;5054373;28;20788;-89
2021/08/25 01:45:54;;;;;;;19.77;18.47;;;;;;;;;;5054103;28;20427;-88
2021/08/25 01:48:24;;;;;;;20.20;19.00;;;;;;;;;;5036678;28;20915;-89
2021/08/25 01:50:51;;;;;;;20.20;18.90;;;;;;;;;;5054184;28;20417;-89
2021/08/25 01:53:19;;;;;;;19.83;18.73;;;;;;;;;;5053664;28;20472;-88
2021/08/25 01:55:47;;;;;;;19.67;18.53;;;;;;;;;;5054279;28;20438;-88
2021/08/25 01:58:14;;;;;;;20.97;19.80;;;;;;;;;;5054070;28;20454;-88
2021/08/25 02:00:41;;;;;;;20.50;18.97;;;;;;;;;;5054352;28;20889;-89
2021/08/25 02:03:09;;;;;;;19.90;18.50;;;;;;;;;;5054080;28;20428;-89
2021/08/25 02:05:38;;;;;;;19.70;18.43;;;;;;;;;;5053862;28;20413;-89
2021/08/25 02:08:06;;;;;;;19.87;18.77;;;;;;;;;;5054089;28;20431;-88
2021/08/25 02:10:34;;;;;;;19.80;18.60;;;;;;;;;;5054075;28;20409;-88
2021/08/25 02:13:02;;;;;;;20.30;18.97;;;;;;;;;;5040192;28;20511;-88
2021/08/25 02:15:29;;;;;;;20.83;19.60;;;;;;;;;;5057840;28;20879;-89
2021/08/25 02:17:56;;;;;;;20.47;19.07;;;;;;;;;;5058009;28;20412;-88
2021/08/25 02:20:24;;;;;;;19.83;18.60;;;;;;;;;;5040412;28;20761;-88
2021/08/25 02:22:53;;;;;;;20.77;19.60;;;;;;;;;;5058133;28;20775;-87
2021/08/25 02:25:20;;;;;;;19.67;18.47;;;;;;;;;;5057637;28;20481;-88
2021/08/25 02:27:47;;;;;;;20.30;19.07;;;;;;;;;;5057711;28;20457;-89
2021/08/25 02:30:15;;;;;;;21.97;19.50;;;;;;;;;;5058106;28;20446;-88
2021/08/25 02:32:42;;;;;;;20.50;19.20;;;;;;;;;;5057765;28;20452;-88
2021/08/25 02:35:10;;;;;;;19.80;18.60;;;;;;;;;;5057416;28;20883;-88
2021/08/25 02:37:38;;;;;;;20.50;19.20;;;;;;;;;;5040214;28;20413;-88
2021/08/25 02:40:08;;;;;;;20.10;18.90;;;;;;;;;;5040244;28;20450;-88
2021/08/25 02:42:36;;;;;;;19.70;18.50;;;;;;;;;;5058572;28;20775;-88
2021/08/25 02:45:05;;;;;;;20.50;19.10;;;;;;;;;;5057531;28;20458;-88
2021/08/25 02:47:32;;;;;;;20.53;19.13;;;;;;;;;;5057279;28;20895;-88
2021/08/25 02:50:00;;;;;;;20.13;18.83;;;;;;;;;;5057414;28;20900;-87
2021/08/25 02:52:27;;;;;;;20.20;18.77;;;;;;;;;;5057669;28;20460;-88
2021/08/25 02:54:54;;;;;;;20.57;19.27;;;;;;;;;;5057941;28;20428;-88
2021/08/25 02:57:23;;;;;;;20.80;19.40;;;;;;;;;;5056952;28;20426;-88
2021/08/25 02:59:51;;;;;;;21.03;19.73;;;;;;;;;;5057245;28;20869;-88
2021/08/25 03:02:18;;;;;;;20.57;19.30;;;;;;;;;;5057328;28;20435;-89
2021/08/25 03:04:45;;;;;;;20.97;19.67;;;;;;;;;;5039750;28;20442;-88
2021/08/25 03:07:13;;;;;;;20.27;19.07;;;;;;;;;;5057078;28;20759;-89
2021/08/25 03:09:40;;;;;;;19.60;18.40;;;;;;;;;;5056706;28;20944;-88
2021/08/25 03:12:08;;;;;;;20.17;18.97;;;;;;;;;;5057021;28;20445;-89
2021/08/25 03:14:37;;;;;;;21.77;20.10;;;;;;;;;;5057041;28;20401;-89
2021/08/25 03:17:04;;;;;;;20.13;18.83;;;;;;;;;;5057044;28;20409;-90
2021/08/25 03:19:32;;;;;;;19.97;18.77;;;;;;;;;;5056634;28;20430;-89
2021/08/25 03:21:59;;;;;;;21.40;19.90;;;;;;;;;;5056522;28;20901;-89
2021/08/25 03:24:27;;;;;;;20.03;18.60;;;;;;;;;;5056311;28;20843;-89
2021/08/25 03:26:54;;;;;;;21.00;19.80;;;;;;;;;;5056907;28;20479;-90
2021/08/25 03:29:21;;;;;;;20.27;18.90;;;;;;;;;;5056441;28;20413;-89
2021/08/25 03:31:50;;;;;;;20.43;19.20;;;;;;;;;;5056615;28;20414;-89
2021/08/25 03:34:18;;;;;;;20.90;19.67;;;;;;;;;;5056642;28;20483;-88
2021/08/25 03:36:45;;;;;;;21.10;19.40;;;;;;;;;;5056610;28;20417;-89
2021/08/25 03:39:12;;;;;;;20.93;19.53;;;;;;;;;;5056164;28;20417;-89
2021/08/25 03:41:39;;;;;;;20.60;19.20;;;;;;;;;;5056152;28;20454;-89
2021/08/25 03:44:07;;;;;;;21.17;19.67;;;;;;;;;;5056382;28;20476;-89
2021/08/25 03:46:35;;;;;;;20.80;19.50;;;;;;;;;;5056325;28;20962;-90
2021/08/25 03:49:04;;;;;;;20.57;19.27;;;;;;;;;;5056316;28;20439;-89
2021/08/25 03:51:31;;;;;;;21.43;20.03;;;;;;;;;;5056331;28;20438;-89
2021/08/25 03:53:59;;;;;;;20.53;19.43;;;;;;;;;;5038861;28;20478;-89
2021/08/25 03:56:26;;;;;;;22.60;20.87;;;;;;;;;;5056130;28;20458;-89
2021/08/25 03:58:53;;;;;;;20.40;19.10;;;;;;;;;;5055772;28;20462;-90
2021/08/25 04:01:21;;;;;;;21.07;19.57;;;;;;;;;;5055929;28;20425;-89
2021/08/25 04:03:48;;;;;;;20.47;19.23;;;;;;;;;;5055847;28;20428;-89
2021/08/25 04:06:17;;;;;;;20.87;19.50;;;;;;;;;;5038708;28;20432;-89
2021/08/25 04:08:44;;;;;;;20.73;19.27;;;;;;;;;;5056011;28;20430;-89
2021/08/25 04:11:12;;;;;;;19.87;18.67;;;;;;;;;;5055655;28;20441;-89
2021/08/25 04:13:39;;;;;;;19.70;18.40;;;;;;;;;;5055666;28;20464;-88
2021/08/25 04:16:07;;;;;;;19.67;18.47;;;;;;;;;;5055712;28;20397;-89
2021/08/25 04:18:34;;;;;;;20.27;18.87;;;;;;;;;;5055873;28;20964;-89
2021/08/25 04:21:01;;;;;;;20.10;18.90;;;;;;;;;;5055709;28;20420;-90
2021/08/25 04:23:30;;;;;;;20.30;19.00;;;;;;;;;;5055450;28;20414;-89
2021/08/25 04:25:58;;;;;;;19.90;18.60;;;;;;;;;;5037866;28;20501;-89
2021/08/25 04:28:25;;;;;;;20.03;18.93;;;;;;;;;;5055865;28;20441;-89
2021/08/25 04:30:52;;;;;;;20.67;19.37;;;;;;;;;;5055523;28;20424;-89
2021/08/25 04:33:20;;;;;;;21.47;20.07;;;;;;;;;;5055093;28;20512;-89
2021/08/25 04:35:47;;;;;;;20.43;19.20;;;;;;;;;;5054607;28;20417;-90
2021/08/25 04:38:15;;;;;;;20.90;19.30;;;;;;;;;;5055336;28;20412;-89
2021/08/25 04:40:44;;;;;;;20.33;19.13;;;;;;;;;;5055369;28;20424;-89
2021/08/25 04:43:11;;;;;;;21.10;19.57;;;;;;;;;;5054853;28;20424;-89
2021/08/25 04:45:38;;;;;;;21.70;20.20;;;;;;;;;;5055296;28;20449;-89
2021/08/25 04:48:06;;;;;;;20.60;19.33;;;;;;;;;;5054849;28;20449;-89
2021/08/25 04:50:33;;;;;;;21.20;19.80;;;;;;;;;;5037850;28;20446;-89
2021/08/25 04:53:03;;;;;;;21.40;20.00;;;;;;;;;;5054597;28;20457;-85
2021/08/25 04:55:30;;;;;;;22.57;20.83;;;;;;;;;;5054926;28;20431;-86
2021/08/25 04:57:59;;;;;;;20.00;18.70;;;;;;;;;;5055028;28;20459;-86
2021/08/25 05:00:26;;;;;;;20.90;19.43;;;;;;;;;;5055235;28;20432;-89
2021/08/25 05:02:54;;;;;;;20.20;18.87;;;;;;;;;;5037066;28;20418;-90
2021/08/25 05:05:21;;;;;;;21.13;19.57;;;;;;;;;;5054535;28;20418;-86
2021/08/25 05:07:49;;;;;;;21.80;20.13;;;;;;;;;;5054310;28;20497;-84
2021/08/25 05:10:17;;;;;;;21.03;19.73;;;;;;;;;;5054394;28;20971;-85
2021/08/25 05:12:44;;;;;;;20.83;19.63;;;;;;;;;;5054133;28;20903;-84
2021/08/25 05:15:13;;;;;;;20.10;18.90;;;;;;;;;;5054565;28;20417;-85
2021/08/25 05:17:41;;;;;;;20.93;19.20;;;;;;;;;;5054418;28;20417;-85
2021/08/25 05:20:09;;;;;;;21.70;20.20;;;;;;;;;;5054169;28;20417;-84
2021/08/25 05:22:37;;;;;;;20.80;19.50;;;;;;;;;;5054372;28;20422;-84
2021/08/25 05:25:04;;;;;;;21.53;20.23;;;;;;;;;;5053934;28;20465;-84
2021/08/25 05:27:32;;;;;;;21.97;20.50;;;;;;;;;;5053891;28;20962;-85
2021/08/25 05:29:59;;;;;;;21.80;20.10;;;;;;;;;;5054092;28;20462;-84
2021/08/25 05:32:28;;;;;;;21.47;20.10;;;;;;;;;;5054056;28;20417;-85
2021/08/25 05:34:56;;;;;;;21.13;19.90;;;;;;;;;;5054120;28;20457;-85
2021/08/25 05:37:23;;;;;;;20.73;19.53;;;;;;;;;;5054093;28;20438;-84
2021/08/25 05:39:50;;;;;;;22.70;20.87;;;;;;;;;;5054412;28;20458;-85
2021/08/25 05:42:18;;;;;;;20.97;19.77;;;;;;;;;;5053719;28;20425;-84
2021/08/25 05:44:45;;;;;;;22.07;20.67;;;;;;;;;;5053999;28;20474;-84
2021/08/25 05:47:12;;;;;;;22.40;20.87;;;;;;;;;;5053401;28;20409;-84
2021/08/25 05:49:41;;;;;;;21.87;20.37;;;;;;;;;;5054020;28;20908;-84
2021/08/25 05:52:09;;;;;;;21.27;19.93;;;;;;;;;;5053982;28;20439;-84
2021/08/25 05:54:36;;;;;;;21.10;19.80;;;;;;;;;;5053646;28;20469;-84
2021/08/25 05:57:04;;;;;;;21.40;19.90;;;;;;;;;;5054397;28;20497;-85
2021/08/25 05:59:31;;;;;;;21.60;20.17;;;;;;;;;;5053829;28;20512;-84
2021/08/25 06:01:58;;;;;;;22.97;21.33;;;;;;;;;;5053648;28;20446;-85
2021/08/25 06:04:26;;;;;;;20.83;19.53;;;;;;;;;;5053902;28;20409;-84
2021/08/25 06:06:54;;;;;;;22.60;20.90;;;;;;;;;;5052799;28;20435;-85
2021/08/25 06:09:22;;;;;;;22.57;21.07;;;;;;;;;;5053721;28;20481;-86
2021/08/25 06:11:49;;;;;;;22.57;20.87;;;;;;;;;;5054121;28;20420;-85
2021/08/25 06:14:17;;;;;;;21.13;19.83;;;;;;;;;;5053932;28;20448;-85
2021/08/25 06:16:44;;;;;;;22.33;20.83;;;;;;;;;;5053830;28;20413;-87
2021/08/25 06:19:12;;;;;;;21.40;19.90;;;;;;;;;;5042554;28;20434;-83
2021/08/25 06:21:39;;;;;;;21.83;20.33;;;;;;;;;;5033941;28;20402;-82
2021/08/25 06:24:08;;;;;;;22.83;21.13;;;;;;;;;;5033549;28;20439;-83
2021/08/25 06:26:35;;;;;;;21.07;19.67;;;;;;;;;;5033328;28;20487;-83
2021/08/25 06:29:03;;;;;;;22.00;20.63;;;;;;;;;;5033171;28;20773;-82
2021/08/25 06:31:30;;;;;;;21.93;20.63;;;;;;;;;;5033144;28;20781;-82
2021/08/25 06:33:57;;;;;;;22.53;21.00;;;;;;;;;;5033055;28;20988;-81
2021/08/25 06:36:25;;;;;;;22.00;20.47;;;;;;;;;;5032575;28;20414;-83
2021/08/25 06:38:52;;;;;;;22.83;21.33;;;;;;;;;;5033365;28;20454;-81
2021/08/25 06:41:21;;;;;;;22.67;21.27;;;;;;;;;;5033545;28;20418;-84
2021/08/25 06:43:49;;;;;;;22.27;20.87;;;;;;;;;;5033459;28;20448;-83
2021/08/25 06:46:17;;;;;;;20.70;19.50;;;;;;;;;;5033105;28;20505;-83
2021/08/25 06:48:44;;;;;;;21.27;19.90;;;;;;;;;;5038948;28;20513;-83
2021/08/25 06:51:11;;;;;;;22.37;20.97;;;;;;;;;;5053007;28;20413;-82
2021/08/25 06:53:39;;;;;;;22.20;20.50;;;;;;;;;;5053042;28;20445;-82
2021/08/25 06:56:06;;;;;;;21.77;20.43;;;;;;;;;;5053646;28;20446;-83
2021/08/25 06:58:35;;;;;;;20.67;19.37;;;;;;;;;;5055368;28;20441;-83
2021/08/25 07:01:02;;;;;;;21.50;20.10;;;;;;;;;;5056011;28;20413;-84
2021/08/25 07:03:30;;;;;;;22.20;20.60;;;;;;;;;;5056990;28;20765;-83
2021/08/25 07:05:57;;;;;;;21.60;19.90;;;;;;;;;;5057280;28;20439;-83
2021/08/25 07:08:25;;;;;;;22.30;20.73;;;;;;;;;;5057447;28;20485;-90
2021/08/25 07:10:52;;;;;;;22.80;21.10;;;;;;;;;;5056325;28;20451;-84
2021/08/25 07:13:20;;;;;;;22.57;20.80;;;;;;;;;;5056861;28;20438;-83
2021/08/25 07:15:49;;;;;;;21.50;20.10;;;;;;;;;;5039125;28;20408;-83
2021/08/25 07:18:16;;;;;;;21.47;20.17;;;;;;;;;;5054799;28;20443;-83
2021/08/25 07:20:44;;;;;;;21.10;19.60;;;;;;;;;;5036549;28;20407;-82
2021/08/25 07:23:11;;;;;;;20.73;19.37;;;;;;;;;;5036568;28;20410;-83
2021/08/25 07:25:38;;;;;;;21.37;19.67;;;;;;;;;;5036201;28;20495;-82
2021/08/25 07:28:06;;;;;;;20.57;19.07;;;;;;;;;;5036384;28;20442;-82
2021/08/25 07:30:33;;;;;;;21.20;19.77;;;;;;;;;;5036379;28;20455;-85
2021/08/25 07:33:02;;;;;;;21.23;19.93;;;;;;;;;;5035857;28;20402;-83
2021/08/25 07:35:30;;;;;;;21.37;20.00;;;;;;;;;;5035903;28;20457;-81
2021/08/25 07:37:57;;;;;;;22.10;20.50;;;;;;;;;;5035859;28;20506;-83
2021/08/25 07:40:25;;;;;;;21.10;19.70;;;;;;;;;;5035284;28;20524;-84
2021/08/25 07:42:52;;;;;;;21.30;20.00;;;;;;;;;;5035596;28;20414;-81
2021/08/25 07:45:19;;;;;;;21.67;20.17;;;;;;;;;;5036332;28;20411;-85
2021/08/25 07:47:47;;;;;;;21.40;20.00;;;;;;;;;;5035732;28;20414;-85
2021/08/25 07:50:16;;;;;;;21.70;20.30;;;;;;;;;;5035582;28;20459;-85
2021/08/25 07:52:43;;;;;;;22.37;20.80;;;;;;;;;;5035186;28;20443;-85
2021/08/25 07:55:11;;;;;;;22.00;20.30;;;;;;;;;;5017967;28;20495;-83
2021/08/25 07:57:38;;;;;;;21.93;20.43;;;;;;;;;;5018986;28;20964;-84
2021/08/25 08:00:07;;;;;;;22.33;20.63;;;;;;;;;;5036143;28;20799;-84
2021/08/25 08:02:35;;;;;;;21.97;20.37;;;;;;;;;;5035823;28;20427;-83
2021/08/25 08:05:02;;;;;;;23.00;21.43;;;;;;;;;;5018899;28;20861;-83
2021/08/25 08:07:31;;;;;;;21.97;20.47;;;;;;;;;;5036017;28;20433;-85
2021/08/25 08:09:58;;;;;;;22.93;21.20;;;;;;;;;;5036173;28;20429;-88
2021/08/25 08:12:26;;;;;;;22.53;20.93;;;;;;;;;;5036180;28;20444;-85
2021/08/25 08:14:53;;;;;;;25.20;22.70;;;;;;;;;;5036299;28;20458;-85
2021/08/25 08:17:22;;;;;;;24.63;22.60;;;;;;;;;;5018717;28;20785;-85
2021/08/25 08:19:49;;;;;;;23.40;21.40;;;;;;;;;;5036028;28;20450;-85
2021/08/25 08:22:17;;;;;;;21.87;20.37;;;;;;;;;;5018094;28;20442;-84
2021/08/25 08:24:46;;;;;;;24.00;22.30;;;;;;;;;;5035168;28;20439;-85
2021/08/25 08:27:13;;;;;;;21.67;20.27;;;;;;;;;;5035233;28;20996;-85
2021/08/25 08:29:41;;;;;;;22.63;21.13;;;;;;;;;;5035784;28;20440;-85
2021/08/25 08:32:10;;;;;;;21.70;20.30;;;;;;;;;;5035767;28;20440;-85
2021/08/25 08:34:38;;;;;;;23.23;21.63;;;;;;;;;;5035632;28;20480;-85
2021/08/25 08:37:05;;;;;;;25.50;23.70;;;;;;;;;;5035502;28;20449;-85
2021/08/25 08:39:33;;;;;;;27.93;25.77;;;;;;;;;;5035302;28;20776;-85
2021/08/25 08:42:01;;;;;;;25.20;23.40;;;;;;;;;;5035276;28;20436;-85
2021/08/25 08:44:29;;;;;;;24.70;22.90;;;;;;;;;;5034998;28;20414;-85
2021/08/25 08:46:56;;;;;;;24.37;22.37;;;;;;;;;;5035408;28;20404;-85
2021/08/25 08:49:24;;;;;;;23.93;22.23;;;;;;;;;;5035623;28;20432;-85
2021/08/25 08:51:52;;;;;;;24.30;22.40;;;;;;;;;;5035504;28;20422;-85
2021/08/25 08:54:20;;;;;;;25.83;24.03;;;;;;;;;;5035001;28;20486;-85
2021/08/25 08:56:47;;;;;;;23.73;22.13;;;;;;;;;;5035064;28;20437;-82
2021/08/25 08:59:16;;;;;;;25.73;23.60;;;;;;;;;;5035060;28;20419;-88
2021/08/25 09:01:44;;;;;;;24.27;22.67;;;;;;;;;;5034829;28;20462;-87
2021/08/25 09:04:26;;;;;;;24.10;22.20;;;;;;;;;;5035916;28;20457;-84
2021/08/25 09:06:54;;;;;;;22.73;21.17;;;;;;;;;;5034709;28;20607;-85
2021/08/25 09:09:21;;;;;;;23.70;21.80;;;;;;;;;;5035225;28;20440;-84
2021/08/25 09:11:49;;;;;;;23.70;22.10;;;;;;;;;;5035381;28;20437;-93
2021/08/25 09:14:18;;;;;;;24.07;22.27;;;;;;;;;;5034787;28;20781;-87
2021/08/25 09:16:46;;;;;;;23.30;21.43;;;;;;;;;;5017095;28;20503;-84
2021/08/25 09:19:14;;;;;;;22.73;21.27;;;;;;;;;;5034632;28;20432;-84
2021/08/25 09:21:43;;;;;;;25.23;23.27;;;;;;;;;;5034317;28;20466;-84
2021/08/25 09:24:11;;;;;;;23.83;22.20;;;;;;;;;;5034416;28;20750;-83
2021/08/25 09:26:40;;;;;;;24.00;22.17;;;;;;;;;;5034462;28;20466;-83
2021/08/25 09:29:18;;;;;;;22.97;21.20;;;;;;;;;;5035530;28;20441;-84
2021/08/25 09:31:46;;;;;;;23.13;21.53;;;;;;;;;;5034325;28;20420;-83
2021/08/25 09:34:28;;;;;;;23.97;22.17;;;;;;;;;;5034502;28;20455;-83
2021/08/25 09:37:08;;;;;;;22.97;21.17;;;;;;;;;;5033083;28;20911;-82
2021/08/25 09:39:36;;;;;;;24.50;22.80;;;;;;;;;;5034113;28;21022;-83
2021/08/25 09:42:05;;;;;;;22.33;20.83;;;;;;;;;;5034542;28;20421;-83
2021/08/25 09:44:34;;;;;;;23.70;22.00;;;;;;;;;;5033850;28;20824;-84
2021/08/25 09:47:01;;;;;;;23.53;21.77;;;;;;;;;;5033944;28;20412;-83
2021/08/25 09:49:29;;;;;;;23.77;22.07;;;;;;;;;;5034641;28;20419;-83
2021/08/25 09:51:56;;;;;;;23.80;22.30;;;;;;;;;;5053847;28;20415;-83
2021/08/25 09:54:23;;;;;;;23.13;21.50;;;;;;;;;;5053900;28;20400;-82
2021/08/25 09:56:53;;;;;;;22.60;21.10;;;;;;;;;;5053617;28;20953;-84
2021/08/25 09:59:21;;;;;;;22.40;20.83;;;;;;;;;;5053735;28;20403;-84
2021/08/25 10:01:51;;;;;;;23.03;21.53;;;;;;;;;;5053833;28;20569;-81
2021/08/25 10:04:19;;;;;;;23.90;22.30;;;;;;;;;;5053499;28;20427;-84
2021/08/25 10:06:47;;;;;;;23.93;21.77;;;;;;;;;;5053153;28;20786;-84
2021/08/25 10:09:15;;;;;;;23.93;22.13;;;;;;;;;;5054188;28;20410;-81
2021/08/25 10:11:44;;;;;;;22.47;21.07;;;;;;;;;;5053368;28;20422;-83
2021/08/25 10:14:12;;;;;;;22.50;20.90;;;;;;;;;;5053409;28;20523;-81
2021/08/25 10:16:41;;;;;;;23.07;21.20;;;;;;;;;;5053376;28;20480;-82
2021/08/25 10:19:26;;;;;;;23.73;22.23;;;;;;;;;;5053523;28;20445;-81
2021/08/25 10:21:53;;;;;;;22.97;21.57;;;;;;;;;;5033233;28;20785;-82
2021/08/25 10:24:21;;;;;;;21.70;20.30;;;;;;;;;;5033689;28;20418;-81
2021/08/25 10:27:07;;;;;;;22.80;21.00;;;;;;;;;;5033904;28;20989;-83
2021/08/25 10:29:34;;;;;;;22.67;21.17;;;;;;;;;;5035299;28;20433;-82
2021/08/25 10:32:17;;;;;;;23.00;21.20;;;;;;;;;;5033905;28;20514;-82
2021/08/25 10:34:46;;;;;;;21.87;20.47;;;;;;;;;;5036305;28;20910;-85
2021/08/25 10:37:30;;;;;;;22.60;21.10;;;;;;;;;;5037550;28;20441;-84
2021/08/25 10:39:59;;;;;;;22.40;20.80;;;;;;;;;;5037254;28;20442;-84
2021/08/25 10:42:49;;;;;;;23.47;21.77;;;;;;;;;;5036573;28;20412;-84
2021/08/25 10:45:17;;;;;;;22.33;20.83;;;;;;;;;;5036606;28;20416;-83
2021/08/25 10:47:57;;;;;;;23.47;21.67;;;;;;;;;;5037141;28;20420;-82
2021/08/25 10:50:26;;;;;;;23.33;21.63;;;;;;;;;;5045752;28;20431;-83
2021/08/25 10:52:53;;;;;;;23.93;22.30;;;;;;;;;;5059056;28;20518;-83
2021/08/25 10:55:21;;;;;;;23.70;22.10;;;;;;;;;;5057347;28;20475;-85
2021/08/25 10:57:48;;;;;;;22.93;21.40;;;;;;;;;;5056858;28;20444;-84
2021/08/25 11:00:16;;;;;;;23.17;21.20;;;;;;;;;;5057135;28;20454;-84
2021/08/25 11:02:43;;;;;;;22.30;20.90;;;;;;;;;;5057279;28;20611;-84
2021/08/25 11:05:11;;;;;;;23.67;22.17;;;;;;;;;;5056889;28;20461;-83
2021/08/25 11:07:47;;;;;;;24.13;22.27;;;;;;;;;;5056425;28;20422;-84
2021/08/25 11:10:14;;;;;;;25.37;23.70;;;;;;;;;;5057979;28;20453;-87
2021/08/25 11:12:46;;;;;;;24.50;22.70;;;;;;;;;;5057214;28;20851;-83
2021/08/25 11:15:13;;;;;;;23.40;21.67;;;;;;;;;;5039125;28;20479;-84
2021/08/25 11:17:42;;;;;;;22.87;21.37;;;;;;;;;;5056715;28;20447;-83
2021/08/25 11:20:10;;;;;;;22.87;21.40;;;;;;;;;;5055061;28;20973;-84
2021/08/25 11:22:39;;;;;;;23.17;21.57;;;;;;;;;;5038450;28;20951;-83
2021/08/25 11:25:12;;;;;;;22.90;21.40;;;;;;;;;;5056126;28;20462;-83
2021/08/25 11:27:40;;;;;;;23.97;22.17;;;;;;;;;;5056313;28;20468;-84
2021/08/25 11:30:15;;;;;;;23.10;21.40;;;;;;;;;;5038664;28;20428;-84
2021/08/25 11:32:49;;;;;;;23.07;21.57;;;;;;;;;;5056498;28;20805;-84
2021/08/25 11:35:22;;;;;;;23.40;21.87;;;;;;;;;;5056782;28;20479;-84
2021/08/25 11:37:50;;;;;;;24.83;22.20;;;;;;;;;;5056239;28;20438;-84
2021/08/25 11:40:22;;;;;;;23.13;21.63;;;;;;;;;;5055869;28;20798;-84
2021/08/25 11:42:50;;;;;;;22.80;21.30;;;;;;;;;;5056042;28;20451;-84
2021/08/25 11:45:18;;;;;;;22.20;20.70;;;;;;;;;;5055348;28;20415;-84
2021/08/25 11:47:49;;;;;;;23.27;21.67;;;;;;;;;;5055713;28;20911;-84
2021/08/25 11:50:17;;;;;;;21.57;20.20;;;;;;;;;;5047678;28;20446;-84
2021/08/25 11:52:45;;;;;;;22.80;21.30;;;;;;;;;;5035795;28;20453;-84
2021/08/25 11:55:12;;;;;;;22.80;21.20;;;;;;;;;;5018290;28;20496;-84
2021/08/25 11:57:45;;;;;;;22.67;21.07;;;;;;;;;;5035717;28;20444;-84
2021/08/25 12:00:13;;;;;;;23.00;21.60;;;;;;;;;;5035988;28;20417;-84
2021/08/25 12:02:57;;;;;;;22.00;20.40;;;;;;;;;;5035994;28;20423;-84
2021/08/25 12:05:25;;;;;;;22.80;21.00;;;;;;;;;;5035547;28;20955;-84
2021/08/25 12:07:59;;;;;;;23.00;21.30;;;;;;;;;;5035753;28;20452;-83
2021/08/25 12:10:27;;;;;;;23.10;21.60;;;;;;;;;;5035523;28;20424;-83
2021/08/25 12:12:57;;;;;;;22.90;21.30;;;;;;;;;;5035564;28;20416;-85
2021/08/25 12:15:39;;;;;;;23.17;21.17;;;;;;;;;;5017499;28;20555;-83
2021/08/25 12:18:06;;;;;;;23.40;21.60;;;;;;;;;;5035027;28;20429;-84
2021/08/25 12:20:36;;;;;;;23.17;21.60;;;;;;;;;;5035293;28;20458;-85
2021/08/25 12:23:04;;;;;;;23.80;21.90;;;;;;;;;;5034811;28;20953;-83
2021/08/25 12:25:38;;;;;;;23.80;22.30;;;;;;;;;;5035072;28;20488;-83
2021/08/25 12:28:07;;;;;;;23.77;22.27;;;;;;;;;;5034981;28;20446;-82
2021/08/25 12:30:35;;;;;;;23.50;21.90;;;;;;;;;;5035021;28;20421;-83
2021/08/25 12:33:05;;;;;;;22.90;21.40;;;;;;;;;;5035310;28;20402;-83
2021/08/25 12:35:33;;;;;;;25.60;23.80;;;;;;;;;;5034991;28;20958;-83
2021/08/25 12:38:00;;;;;;;23.70;22.20;;;;;;;;;;5034812;28;20447;-85
2021/08/25 12:40:29;;;;;;;24.00;22.50;;;;;;;;;;5034836;28;20413;-84
2021/08/25 12:42:57;;;;;;;23.93;22.10;;;;;;;;;;5034599;28;20408;-83
2021/08/25 12:45:27;;;;;;;23.90;22.30;;;;;;;;;;5035049;28;20391;-83
2021/08/25 12:47:55;;;;;;;23.27;21.77;;;;;;;;;;5034952;28;20453;-83
2021/08/25 12:50:23;;;;;;;23.93;22.33;;;;;;;;;;5043610;28;20459;-83
2021/08/25 12:52:52;;;;;;;22.63;21.10;;;;;;;;;;5054727;28;20453;-83
2021/08/25 12:55:20;;;;;;;24.90;23.20;;;;;;;;;;5054201;28;20503;-83
2021/08/25 12:57:48;;;;;;;24.40;22.80;;;;;;;;;;5054368;28;20804;-83
2021/08/25 13:00:16;;;;;;;23.43;21.90;;;;;;;;;;5054482;28;20453;-84
2021/08/25 13:02:45;;;;;;;23.80;22.20;;;;;;;;;;5054658;28;20766;-83
2021/08/25 13:05:13;;;;;;;24.63;22.83;;;;;;;;;;5054357;28;20419;-83
2021/08/25 13:07:42;;;;;;;24.07;22.37;;;;;;;;;;5036879;28;20406;-83
2021/08/25 13:10:10;;;;;;;24.70;22.90;;;;;;;;;;5054172;28;20432;-83
2021/08/25 13:12:38;;;;;;;24.40;22.70;;;;;;;;;;5053961;28;20423;-83
2021/08/25 13:15:06;;;;;;;24.70;22.90;;;;;;;;;;5053929;28;20441;-83
2021/08/25 13:17:33;;;;;;;25.00;23.27;;;;;;;;;;5036212;28;21057;-83
2021/08/25 13:20:02;;;;;;;25.23;23.50;;;;;;;;;;5054278;28;20458;-83
2021/08/25 13:22:30;;;;;;;25.23;23.50;;;;;;;;;;5054054;28;20438;-83
2021/08/25 13:24:57;;;;;;;24.83;23.03;;;;;;;;;;5053991;28;20481;-83
2021/08/25 13:27:25;;;;;;;24.20;22.50;;;;;;;;;;5053897;28;20465;-83
2021/08/25 13:29:52;;;;;;;24.03;22.30;;;;;;;;;;5054062;28;20445;-84
2021/08/25 13:32:20;;;;;;;24.00;22.37;;;;;;;;;;5053996;28;20758;-83
2021/08/25 13:34:47;;;;;;;25.03;23.13;;;;;;;;;;5053828;28;20480;-83
2021/08/25 13:37:16;;;;;;;24.10;22.43;;;;;;;;;;5036078;28;20995;-83
2021/08/25 13:39:43;;;;;;;26.20;24.30;;;;;;;;;;5053658;28;20446;-83
2021/08/25 13:42:11;;;;;;;25.77;23.80;;;;;;;;;;5053668;28;20426;-83
2021/08/25 13:44:42;;;;;;;24.60;23.00;;;;;;;;;;5053193;28;20468;-84
2021/08/25 13:47:09;;;;;;;25.20;23.50;;;;;;;;;;5053724;28;20793;-83
2021/08/25 13:49:37;;;;;;;26.57;24.27;;;;;;;;;;5051285;28;20430;-83
2021/08/25 13:52:06;;;;;;;25.27;23.47;;;;;;;;;;5033797;28;20803;-83
2021/08/25 13:54:35;;;;;;;24.43;22.90;;;;;;;;;;5034157;28;20438;-83
2021/08/25 13:57:02;;;;;;;25.47;23.67;;;;;;;;;;5033791;28;20494;-83
2021/08/25 13:59:30;;;;;;;24.70;23.00;;;;;;;;;;5033595;28;20515;-83
2021/08/25 14:01:57;;;;;;;25.60;23.80;;;;;;;;;;5033725;28;20443;-83
2021/08/25 14:04:24;;;;;;;24.50;22.80;;;;;;;;;;5033385;28;20447;-83
2021/08/25 14:06:52;;;;;;;24.17;22.57;;;;;;;;;;5033506;28;20896;-83
2021/08/25 14:09:19;;;;;;;25.97;24.10;;;;;;;;;;5037696;28;20436;-83
2021/08/25 14:11:48;;;;;;;26.33;24.40;;;;;;;;;;5037841;28;20421;-83
2021/08/25 14:14:15;;;;;;;25.03;23.43;;;;;;;;;;5037359;28;20835;-83
2021/08/25 14:16:43;;;;;;;25.00;23.40;;;;;;;;;;5037305;28;20987;-84
2021/08/25 14:19:10;;;;;;;25.33;23.53;;;;;;;;;;5019652;28;20864;-83
2021/08/25 14:21:38;;;;;;;24.73;23.13;;;;;;;;;;5056764;28;20457;-83
2021/08/25 14:24:05;;;;;;;24.37;22.57;;;;;;;;;;5057577;28;20453;-83